sensor_id;sensor_type;location;lat;lon;timestamp;pressure;altitude;pressure_sealevel;temperature;humidity
72585;BME280;60618;40.084;32.908;2023-05-12T00:01:11;89532.31;;;9.21;91.47
72585;BME280;60618;40.084;32.908;2023-05-12T00:03:38;89511.34;;;9.23;91.34
72585;BME280;60618;40.084;32.908;2023-05-12T00:06:05;89525.81;;;9.22;91.28
72585;BME280;60618;40.084;32.908;2023-05-12T00:08:32;89530.31;;;9.16;91.74
72585;BME280;60618;40.084;32.908;2023-05-12T00:11:00;89523.81;;;9.17;91.60
72585;BME280;60618;40.084;32.908;2023-05-12T00:13:27;89517.97;;;9.13;92.04
72585;BME280;60618;40.084;32.908;2023-05-12T00:15:54;89529.50;;;9.10;92.81
72585;BME280;60618;40.084;32.908;2023-05-12T00:18:21;89536.13;;;9.00;92.53
72585;BME280;60618;40.084;32.908;2023-05-12T00:20:48;89524.56;;;9.03;92.46
72585;BME280;60618;40.084;32.908;2023-05-12T00:23:15;89518.78;;;9.04;92.23
72585;BME280;60618;40.084;32.908;2023-05-12T00:25:42;89529.50;;;9.10;92.31
72585;BME280;60618;40.084;32.908;2023-05-12T00:28:09;89536.81;;;9.15;92.18
72585;BME280;60618;40.084;32.908;2023-05-12T00:30:35;89518.63;;;8.93;91.92
72585;BME280;60618;40.084;32.908;2023-05-12T00:33:03;89527.88;;;8.98;92.02
72585;BME280;60618;40.084;32.908;2023-05-12T00:35:30;89513.59;;;8.80;93.10
72585;BME280;60618;40.084;32.908;2023-05-12T00:37:57;89529.53;;;8.80;93.41
72585;BME280;60618;40.084;32.908;2023-05-12T00:40:24;89508.22;;;8.75;93.11
72585;BME280;60618;40.084;32.908;2023-05-12T00:42:51;89506.28;;;8.75;93.54
72585;BME280;60618;40.084;32.908;2023-05-12T00:45:17;89515.63;;;8.71;93.43
72585;BME280;60618;40.084;32.908;2023-05-12T00:47:44;89515.19;;;8.72;93.31
72585;BME280;60618;40.084;32.908;2023-05-12T00:50:12;89514.63;;;8.68;94.02
72585;BME280;60618;40.084;32.908;2023-05-12T00:52:39;89494.56;;;8.67;93.54
72585;BME280;60618;40.084;32.908;2023-05-12T00:55:06;89516.75;;;8.64;93.76
72585;BME280;60618;40.084;32.908;2023-05-12T00:57:33;89506.66;;;8.68;93.25
72585;BME280;60618;40.084;32.908;2023-05-12T01:00:00;89486.25;;;8.60;94.01
72585;BME280;60618;40.084;32.908;2023-05-12T01:02:27;89506.28;;;8.61;94.07
72585;BME280;60618;40.084;32.908;2023-05-12T01:04:54;89496.97;;;8.65;93.80
72585;BME280;60618;40.084;32.908;2023-05-12T01:07:21;89497.59;;;8.60;93.74
72585;BME280;60618;40.084;32.908;2023-05-12T01:09:55;89510.97;;;8.51;93.74
72585;BME280;60618;40.084;32.908;2023-05-12T01:12:23;89513.88;;;8.53;94.54
72585;BME280;60618;40.084;32.908;2023-05-12T01:14:51;89508.03;;;8.49;94.46
72585;BME280;60618;40.084;32.908;2023-05-12T01:17:19;89507.94;;;8.58;94.51
72585;BME280;60618;40.084;32.908;2023-05-12T01:19:57;89506.84;;;8.50;94.38
72585;BME280;60618;40.084;32.908;2023-05-12T01:22:28;89502.84;;;8.55;94.41
72585;BME280;60618;40.084;32.908;2023-05-12T01:25:00;89484.16;;;8.49;94.54
72585;BME280;60618;40.084;32.908;2023-05-12T01:27:28;89500.19;;;8.55;94.52
72585;BME280;60618;40.084;32.908;2023-05-12T01:30:03;89488.16;;;8.59;93.79
72585;BME280;60618;40.084;32.908;2023-05-12T01:32:30;89491.50;;;8.54;94.02
72585;BME280;60618;40.084;32.908;2023-05-12T01:34:57;89492.13;;;8.49;94.58
72585;BME280;60618;40.084;32.908;2023-05-12T01:37:24;89489.56;;;8.55;94.09
72585;BME280;60618;40.084;32.908;2023-05-12T01:39:52;89501.44;;;8.59;93.50
72585;BME280;60618;40.084;32.908;2023-05-12T01:42:19;89497.59;;;8.60;94.11
72585;BME280;60618;40.084;32.908;2023-05-12T01:44:46;89492.56;;;8.62;93.80
72585;BME280;60618;40.084;32.908;2023-05-12T01:47:13;89482.88;;;8.59;93.81
72585;BME280;60618;40.084;32.908;2023-05-12T01:49:40;89487.91;;;8.57;94.66
72585;BME280;60618;40.084;32.908;2023-05-12T01:52:07;89481.13;;;8.56;94.86
72585;BME280;60618;40.084;32.908;2023-05-12T01:54:34;89487.25;;;8.62;94.57
72585;BME280;60618;40.084;32.908;2023-05-12T01:57:00;89483.22;;;8.52;94.82
72585;BME280;60618;40.084;32.908;2023-05-12T01:59:27;89484.69;;;8.53;94.92
72585;BME280;60618;40.084;32.908;2023-05-12T02:01:54;89469.88;;;8.46;95.20
72585;BME280;60618;40.084;32.908;2023-05-12T02:04:21;89477.03;;;8.55;95.14
72585;BME280;60618;40.084;32.908;2023-05-12T02:06:48;89460.72;;;8.47;94.68
72585;BME280;60618;40.084;32.908;2023-05-12T02:09:15;89455.59;;;8.44;94.40
72585;BME280;60618;40.084;32.908;2023-05-12T02:11:42;89482.69;;;8.48;94.27
72585;BME280;60618;40.084;32.908;2023-05-12T02:14:09;89467.13;;;8.41;94.88
72585;BME280;60618;40.084;32.908;2023-05-12T02:16:35;89468.06;;;8.38;94.47
72585;BME280;60618;40.084;32.908;2023-05-12T02:19:02;89450.47;;;8.40;95.22
72585;BME280;60618;40.084;32.908;2023-05-12T02:21:29;89453.59;;;8.39;93.86
72585;BME280;60618;40.084;32.908;2023-05-12T02:23:56;89455.69;;;8.35;94.05
72585;BME280;60618;40.084;32.908;2023-05-12T02:26:23;89475.00;;;8.35;95.04
72585;BME280;60618;40.084;32.908;2023-05-12T02:28:50;89486.28;;;8.45;94.17
72585;BME280;60618;40.084;32.908;2023-05-12T02:31:17;89486.53;;;8.47;93.56
72585;BME280;60618;40.084;32.908;2023-05-12T02:33:44;89478.66;;;8.52;93.22
72585;BME280;60618;40.084;32.908;2023-05-12T02:36:11;89478.84;;;8.49;93.17
72585;BME280;60618;40.084;32.908;2023-05-12T02:38:38;89480.94;;;8.60;93.01
72585;BME280;60618;40.084;32.908;2023-05-12T02:41:04;89471.16;;;8.51;93.41
72585;BME280;60618;40.084;32.908;2023-05-12T02:43:31;89461.19;;;8.46;92.61
72585;BME280;60618;40.084;32.908;2023-05-12T02:45:58;89463.56;;;8.44;92.83
72585;BME280;60618;40.084;32.908;2023-05-12T02:48:25;89454.88;;;8.43;93.26
72585;BME280;60618;40.084;32.908;2023-05-12T02:50:52;89461.53;;;8.53;93.25
72585;BME280;60618;40.084;32.908;2023-05-12T02:53:19;89441.31;;;8.56;92.10
72585;BME280;60618;40.084;32.908;2023-05-12T02:55:46;89446.53;;;8.50;92.46
72585;BME280;60618;40.084;32.908;2023-05-12T02:58:13;89440.97;;;8.48;92.77
72585;BME280;60618;40.084;32.908;2023-05-12T03:00:39;89438.13;;;8.37;92.57
72585;BME280;60618;40.084;32.908;2023-05-12T03:03:06;89447.91;;;8.46;92.75
72585;BME280;60618;40.084;32.908;2023-05-12T03:05:33;89432.38;;;8.39;92.99
72585;BME280;60618;40.084;32.908;2023-05-12T03:08:00;89452.84;;;8.53;92.98
72585;BME280;60618;40.084;32.908;2023-05-12T03:10:27;89456.53;;;8.56;92.18
72585;BME280;60618;40.084;32.908;2023-05-12T03:12:54;89448.81;;;8.58;92.15
72585;BME280;60618;40.084;32.908;2023-05-12T03:15:21;89467.31;;;8.52;91.86
72585;BME280;60618;40.084;32.908;2023-05-12T03:17:48;89472.97;;;8.60;93.09
72585;BME280;60618;40.084;32.908;2023-05-12T03:20:15;89449.28;;;8.56;92.38
72585;BME280;60618;40.084;32.908;2023-05-12T03:22:42;89447.72;;;8.64;92.51
72585;BME280;60618;40.084;32.908;2023-05-12T03:25:09;89448.44;;;8.65;92.24
72585;BME280;60618;40.084;32.908;2023-05-12T03:27:36;89445.88;;;8.70;91.68
72585;BME280;60618;40.084;32.908;2023-05-12T03:30:03;89447.25;;;8.66;91.79
72585;BME280;60618;40.084;32.908;2023-05-12T03:32:30;89451.56;;;8.63;92.71
72585;BME280;60618;40.084;32.908;2023-05-12T03:34:57;89447.00;;;8.64;92.96
72585;BME280;60618;40.084;32.908;2023-05-12T03:37:24;89435.63;;;8.63;92.67
72585;BME280;60618;40.084;32.908;2023-05-12T03:39:51;89450.84;;;8.63;92.98
72585;BME280;60618;40.084;32.908;2023-05-12T03:42:17;89461.91;;;8.61;93.46
72585;BME280;60618;40.084;32.908;2023-05-12T03:44:44;89463.44;;;8.68;93.29
72585;BME280;60618;40.084;32.908;2023-05-12T03:47:11;89465.28;;;8.76;92.85
72585;BME280;60618;40.084;32.908;2023-05-12T03:49:38;89457.19;;;8.86;92.96
72585;BME280;60618;40.084;32.908;2023-05-12T03:52:05;89459.97;;;8.76;92.72
72585;BME280;60618;40.084;32.908;2023-05-12T03:54:32;89459.75;;;8.80;92.85
72585;BME280;60618;40.084;32.908;2023-05-12T03:57:01;89462.78;;;8.88;91.58
72585;BME280;60618;40.084;32.908;2023-05-12T03:59:31;89455.75;;;8.85;91.87
72585;BME280;60618;40.084;32.908;2023-05-12T04:01:58;89454.81;;;8.88;91.68
72585;BME280;60618;40.084;32.908;2023-05-12T04:04:25;89441.91;;;8.80;92.23
72585;BME280;60618;40.084;32.908;2023-05-12T04:06:52;89434.88;;;8.77;92.66
72585;BME280;60618;40.084;32.908;2023-05-12T04:09:24;89428.09;;;8.76;92.68
72585;BME280;60618;40.084;32.908;2023-05-12T04:11:51;89432.56;;;8.85;92.41
72585;BME280;60618;40.084;32.908;2023-05-12T04:14:18;89435.03;;;8.89;92.46
72585;BME280;60618;40.084;32.908;2023-05-12T04:16:52;89442.00;;;8.86;92.10
72585;BME280;60618;40.084;32.908;2023-05-12T04:19:18;89435.56;;;8.93;92.48
72585;BME280;60618;40.084;32.908;2023-05-12T04:21:45;89459.00;;;8.94;91.57
72585;BME280;60618;40.084;32.908;2023-05-12T04:24:12;89436.09;;;8.97;92.06
72585;BME280;60618;40.084;32.908;2023-05-12T04:26:39;89438.13;;;9.02;91.60
72585;BME280;60618;40.084;32.908;2023-05-12T04:29:06;89454.41;;;9.09;91.34
72585;BME280;60618;40.084;32.908;2023-05-12T04:31:33;89447.56;;;9.23;91.90
72585;BME280;60618;40.084;32.908;2023-05-12T04:34:00;89452.38;;;9.39;90.67
72585;BME280;60618;40.084;32.908;2023-05-12T04:36:27;89443.78;;;9.50;89.87
72585;BME280;60618;40.084;32.908;2023-05-12T04:38:54;89441.84;;;9.51;89.20
72585;BME280;60618;40.084;32.908;2023-05-12T04:41:20;89443.72;;;9.65;89.85
72585;BME280;60618;40.084;32.908;2023-05-12T04:43:47;89440.25;;;9.79;89.14
72585;BME280;60618;40.084;32.908;2023-05-12T04:46:17;89455.69;;;9.75;89.41
72585;BME280;60618;40.084;32.908;2023-05-12T04:48:44;89451.28;;;9.92;88.67
72585;BME280;60618;40.084;32.908;2023-05-12T04:51:11;89456.31;;;10.11;86.95
72585;BME280;60618;40.084;32.908;2023-05-12T04:53:38;89461.13;;;10.07;87.21
72585;BME280;60618;40.084;32.908;2023-05-12T04:56:05;89452.88;;;9.84;87.13
72585;BME280;60618;40.084;32.908;2023-05-12T04:58:32;89458.72;;;9.88;86.41
72585;BME280;60618;40.084;32.908;2023-05-12T05:00:59;89448.34;;;9.90;87.23
72585;BME280;60618;40.084;32.908;2023-05-12T05:03:26;89424.09;;;9.83;87.73
72585;BME280;60618;40.084;32.908;2023-05-12T05:06:06;89436.13;;;9.78;87.97
72585;BME280;60618;40.084;32.908;2023-05-12T05:08:33;89434.28;;;9.64;89.51
72585;BME280;60618;40.084;32.908;2023-05-12T05:11:00;89461.34;;;9.62;90.00
72585;BME280;60618;40.084;32.908;2023-05-12T05:13:27;89473.34;;;9.78;90.67
72585;BME280;60618;40.084;32.908;2023-05-12T05:15:54;89459.50;;;9.94;89.55
72585;BME280;60618;40.084;32.908;2023-05-12T05:18:21;89462.75;;;10.04;89.07
72585;BME280;60618;40.084;32.908;2023-05-12T05:20:50;89464.94;;;10.26;88.11
72585;BME280;60618;40.084;32.908;2023-05-12T05:23:24;89480.22;;;10.31;88.38
72585;BME280;60618;40.084;32.908;2023-05-12T05:25:51;89474.25;;;10.36;86.85
72585;BME280;60618;40.084;32.908;2023-05-12T05:28:18;89471.25;;;10.55;87.16
72585;BME280;60618;40.084;32.908;2023-05-12T05:30:45;89462.69;;;10.71;86.24
72585;BME280;60618;40.084;32.908;2023-05-12T05:33:12;89455.00;;;10.84;85.37
72585;BME280;60618;40.084;32.908;2023-05-12T05:35:39;89453.06;;;10.79;86.00
72585;BME280;60618;40.084;32.908;2023-05-12T05:38:06;89457.75;;;10.95;85.87
72585;BME280;60618;40.084;32.908;2023-05-12T05:40:33;89468.75;;;11.08;83.67
72585;BME280;60618;40.084;32.908;2023-05-12T05:43:18;89464.66;;;11.13;84.01
72585;BME280;60618;40.084;32.908;2023-05-12T05:45:45;89464.44;;;11.17;85.30
72585;BME280;60618;40.084;32.908;2023-05-12T05:48:12;89462.09;;;11.30;85.06
72585;BME280;60618;40.084;32.908;2023-05-12T05:50:38;89458.50;;;11.33;84.44
72585;BME280;60618;40.084;32.908;2023-05-12T05:53:05;89470.22;;;11.52;83.30
72585;BME280;60618;40.084;32.908;2023-05-12T05:55:32;89465.91;;;11.60;81.94
72585;BME280;60618;40.084;32.908;2023-05-12T05:57:59;89463.25;;;11.66;81.76
72585;BME280;60618;40.084;32.908;2023-05-12T06:00:26;89471.66;;;11.48;81.66
72585;BME280;60618;40.084;32.908;2023-05-12T06:02:53;89483.22;;;11.33;82.27
72585;BME280;60618;40.084;32.908;2023-05-12T06:05:20;89478.09;;;11.30;83.71
72585;BME280;60618;40.084;32.908;2023-05-12T06:07:48;89487.88;;;11.44;81.60
72585;BME280;60618;40.084;32.908;2023-05-12T06:10:15;89482.31;;;11.48;81.46
72585;BME280;60618;40.084;32.908;2023-05-12T06:12:41;89486.53;;;11.60;81.94
72585;BME280;60618;40.084;32.908;2023-05-12T06:15:09;89486.34;;;11.75;81.79
72585;BME280;60618;40.084;32.908;2023-05-12T06:17:37;89488.50;;;11.71;81.63
72585;BME280;60618;40.084;32.908;2023-05-12T06:20:04;89492.34;;;11.64;80.63
72585;BME280;60618;40.084;32.908;2023-05-12T06:22:31;89506.03;;;11.83;81.23
72585;BME280;60618;40.084;32.908;2023-05-12T06:24:58;89511.63;;;11.85;79.51
72585;BME280;60618;40.084;32.908;2023-05-12T06:27:25;89506.16;;;12.05;79.58
72585;BME280;60618;40.084;32.908;2023-05-12T06:29:52;89515.63;;;12.06;78.20
72585;BME280;60618;40.084;32.908;2023-05-12T06:32:19;89508.09;;;12.10;77.42
72585;BME280;60618;40.084;32.908;2023-05-12T06:34:46;89510.78;;;12.21;77.42
72585;BME280;60618;40.084;32.908;2023-05-12T06:37:12;89510.75;;;12.10;77.74
72585;BME280;60618;40.084;32.908;2023-05-12T06:39:39;89514.59;;;11.98;79.75
72585;BME280;60618;40.084;32.908;2023-05-12T06:42:06;89511.44;;;11.94;80.69
72585;BME280;60618;40.084;32.908;2023-05-12T06:44:33;89518.50;;;12.03;79.75
72585;BME280;60618;40.084;32.908;2023-05-12T06:47:20;89521.47;;;12.16;79.16
72585;BME280;60618;40.084;32.908;2023-05-12T06:49:48;89523.41;;;12.15;77.21
72585;BME280;60618;40.084;32.908;2023-05-12T06:52:15;89505.75;;;12.35;77.06
72585;BME280;60618;40.084;32.908;2023-05-12T06:54:42;89505.41;;;12.05;77.54
72585;BME280;60618;40.084;32.908;2023-05-12T06:57:09;89490.09;;;12.00;77.15
72585;BME280;60618;40.084;32.908;2023-05-12T06:59:36;89479.16;;;11.86;79.03
72585;BME280;60618;40.084;32.908;2023-05-12T07:02:03;89488.22;;;11.63;80.76
72585;BME280;60618;40.084;32.908;2023-05-12T07:04:30;89499.22;;;11.33;81.83
72585;BME280;60618;40.084;32.908;2023-05-12T07:06:57;89519.28;;;11.29;83.15
72585;BME280;60618;40.084;32.908;2023-05-12T07:09:24;89530.22;;;11.31;84.68
72585;BME280;60618;40.084;32.908;2023-05-12T07:11:50;89534.34;;;11.32;83.58
72585;BME280;60618;40.084;32.908;2023-05-12T07:14:17;89536.91;;;11.21;83.98
72585;BME280;60618;40.084;32.908;2023-05-12T07:16:44;89531.69;;;11.00;84.40
72585;BME280;60618;40.084;32.908;2023-05-12T07:19:11;89540.06;;;11.19;84.49
72585;BME280;60618;40.084;32.908;2023-05-12T07:21:38;89539.75;;;11.12;85.13
72585;BME280;60618;40.084;32.908;2023-05-12T07:24:05;89540.34;;;10.95;85.52
72585;BME280;60618;40.084;32.908;2023-05-12T07:26:32;89535.13;;;11.06;85.36
72585;BME280;60618;40.084;32.908;2023-05-12T07:28:59;89544.50;;;11.28;84.81
72585;BME280;60618;40.084;32.908;2023-05-12T07:31:27;89533.84;;;11.28;83.95
72585;BME280;60618;40.084;32.908;2023-05-12T07:33:54;89548.34;;;10.95;85.14
72585;BME280;60618;40.084;32.908;2023-05-12T07:36:21;89544.13;;;10.83;86.65
72585;BME280;60618;40.084;32.908;2023-05-12T07:38:48;89539.78;;;10.86;87.95
72585;BME280;60618;40.084;32.908;2023-05-12T07:41:15;89535.81;;;10.70;88.18
72585;BME280;60618;40.084;32.908;2023-05-12T07:43:42;89528.00;;;10.66;88.78
72585;BME280;60618;40.084;32.908;2023-05-12T07:46:09;89521.47;;;10.67;88.53
72585;BME280;60618;40.084;32.908;2023-05-12T07:48:36;89508.44;;;10.69;89.12
72585;BME280;60618;40.084;32.908;2023-05-12T07:51:03;89518.63;;;10.71;88.25
72585;BME280;60618;40.084;32.908;2023-05-12T07:53:31;89528.69;;;10.61;89.10
72585;BME280;60618;40.084;32.908;2023-05-12T07:55:58;89542.16;;;10.52;89.44
72585;BME280;60618;40.084;32.908;2023-05-12T07:58:25;89540.69;;;10.51;90.85
72585;BME280;60618;40.084;32.908;2023-05-12T08:00:51;89537.75;;;10.75;91.23
72585;BME280;60618;40.084;32.908;2023-05-12T08:03:19;89538.16;;;10.62;92.00
72585;BME280;60618;40.084;32.908;2023-05-12T08:05:46;89527.84;;;10.49;92.77
72585;BME280;60618;40.084;32.908;2023-05-12T08:08:13;89516.44;;;10.69;91.93
72585;BME280;60618;40.084;32.908;2023-05-12T08:10:40;89496.84;;;10.78;90.96
72585;BME280;60618;40.084;32.908;2023-05-12T08:13:07;89495.88;;;10.75;90.97
72585;BME280;60618;40.084;32.908;2023-05-12T08:15:34;89483.03;;;10.74;91.32
72585;BME280;60618;40.084;32.908;2023-05-12T08:18:01;89476.03;;;10.76;92.12
72585;BME280;60618;40.084;32.908;2023-05-12T08:20:28;89468.50;;;10.75;92.43
72585;BME280;60618;40.084;32.908;2023-05-12T08:22:55;89475.81;;;10.80;91.11
72585;BME280;60618;40.084;32.908;2023-05-12T08:25:22;89483.72;;;11.00;91.04
72585;BME280;60618;40.084;32.908;2023-05-12T08:27:49;89480.50;;;11.28;90.83
72585;BME280;60618;40.084;32.908;2023-05-12T08:30:16;89487.69;;;11.59;90.29
72585;BME280;60618;40.084;32.908;2023-05-12T08:32:43;89486.75;;;11.62;85.39
72585;BME280;60618;40.084;32.908;2023-05-12T08:35:10;89474.53;;;11.92;87.67
72585;BME280;60618;40.084;32.908;2023-05-12T08:37:37;89472.19;;;12.06;87.01
72585;BME280;60618;40.084;32.908;2023-05-12T08:40:13;89467.13;;;12.30;86.92
72585;BME280;60618;40.084;32.908;2023-05-12T08:42:43;89450.91;;;12.56;85.76
72585;BME280;60618;40.084;32.908;2023-05-12T08:45:10;89444.63;;;12.59;86.01
72585;BME280;60618;40.084;32.908;2023-05-12T08:47:37;89449.22;;;12.64;83.43
72585;BME280;60618;40.084;32.908;2023-05-12T08:50:06;89445.81;;;12.64;83.65
72585;BME280;60618;40.084;32.908;2023-05-12T08:52:34;89432.94;;;12.62;83.56
72585;BME280;60618;40.084;32.908;2023-05-12T08:55:03;89418.13;;;12.89;85.78
72585;BME280;60618;40.084;32.908;2023-05-12T08:57:30;89429.78;;;13.03;84.68
72585;BME280;60618;40.084;32.908;2023-05-12T08:59:57;89426.09;;;13.28;83.45
72585;BME280;60618;40.084;32.908;2023-05-12T09:02:24;89434.31;;;13.58;82.77
72585;BME280;60618;40.084;32.908;2023-05-12T09:05:03;89429.97;;;13.50;79.25
72585;BME280;60618;40.084;32.908;2023-05-12T09:07:31;89427.47;;;13.63;81.79
72585;BME280;60618;40.084;32.908;2023-05-12T09:09:59;89420.22;;;13.58;78.94
72585;BME280;60618;40.084;32.908;2023-05-12T09:12:30;89425.75;;;13.71;82.80
72585;BME280;60618;40.084;32.908;2023-05-12T09:15:05;89428.16;;;13.80;83.03
72585;BME280;60618;40.084;32.908;2023-05-12T09:17:34;89425.53;;;13.69;80.16
72585;BME280;60618;40.084;32.908;2023-05-12T09:20:01;89416.88;;;13.41;79.94
72585;BME280;60618;40.084;32.908;2023-05-12T09:22:31;89406.63;;;13.50;80.02
72585;BME280;60618;40.084;32.908;2023-05-12T09:24:58;89406.84;;;13.58;78.38
72585;BME280;60618;40.084;32.908;2023-05-12T09:27:26;89414.81;;;13.69;78.23
72585;BME280;60618;40.084;32.908;2023-05-12T09:29:54;89408.91;;;13.87;75.32
72585;BME280;60618;40.084;32.908;2023-05-12T09:32:32;89411.75;;;14.01;76.55
72585;BME280;60618;40.084;32.908;2023-05-12T09:35:10;89401.19;;;14.19;76.29
72585;BME280;60618;40.084;32.908;2023-05-12T09:37:37;89394.25;;;14.41;73.85
72585;BME280;60618;40.084;32.908;2023-05-12T09:40:06;89400.81;;;14.45;73.46
72585;BME280;60618;40.084;32.908;2023-05-12T09:42:34;89398.16;;;14.40;74.84
72585;BME280;60618;40.084;32.908;2023-05-12T09:45:05;89389.03;;;14.60;72.13
72585;BME280;60618;40.084;32.908;2023-05-12T09:47:34;89383.97;;;14.86;75.06
72585;BME280;60618;40.084;32.908;2023-05-12T09:50:06;89384.34;;;14.96;69.59
72585;BME280;60618;40.084;32.908;2023-05-12T09:52:38;89385.19;;;15.10;70.27
72585;BME280;60618;40.084;32.908;2023-05-12T09:57:37;89379.06;;;15.39;69.48
72585;BME280;60618;40.084;32.908;2023-05-12T10:00:10;89375.50;;;15.55;69.37
72585;BME280;60618;40.084;32.908;2023-05-12T10:02:57;89377.22;;;15.53;68.03
72585;BME280;60618;40.084;32.908;2023-05-12T10:05:25;89374.13;;;15.43;66.04
72585;BME280;60618;40.084;32.908;2023-05-12T10:07:56;89380.03;;;15.66;67.80
72585;BME280;60618;40.084;32.908;2023-05-12T10:10:26;89373.81;;;15.77;69.83
72585;BME280;60618;40.084;32.908;2023-05-12T10:12:54;89381.00;;;16.06;66.87
72585;BME280;60618;40.084;32.908;2023-05-12T10:15:22;89370.84;;;16.18;67.54
72585;BME280;60618;40.084;32.908;2023-05-12T10:17:50;89381.66;;;15.94;65.28
72585;BME280;60618;40.084;32.908;2023-05-12T10:20:19;89362.34;;;16.14;65.11
72585;BME280;60618;40.084;32.908;2023-05-12T10:22:47;89366.69;;;16.17;65.23
72585;BME280;60618;40.084;32.908;2023-05-12T10:25:16;89362.16;;;16.44;65.54
72585;BME280;60618;40.084;32.908;2023-05-12T10:27:43;89362.47;;;16.40;64.05
72585;BME280;60618;40.084;32.908;2023-05-12T10:30:11;89362.22;;;16.57;65.79
72585;BME280;60618;40.084;32.908;2023-05-12T10:32:39;89368.53;;;16.60;63.33
72585;BME280;60618;40.084;32.908;2023-05-12T10:35:08;89366.41;;;16.39;63.31
72585;BME280;60618;40.084;32.908;2023-05-12T10:37:35;89358.72;;;16.62;64.80
72585;BME280;60618;40.084;32.908;2023-05-12T10:40:02;89362.47;;;16.91;62.94
72585;BME280;60618;40.084;32.908;2023-05-12T10:42:42;89361.63;;;16.96;63.36
72585;BME280;60618;40.084;32.908;2023-05-12T10:45:16;89365.19;;;17.05;61.87
72585;BME280;60618;40.084;32.908;2023-05-12T10:47:45;89367.78;;;17.10;59.05
72585;BME280;60618;40.084;32.908;2023-05-12T10:50:13;89375.53;;;16.68;61.63
72585;BME280;60618;40.084;32.908;2023-05-12T10:52:54;89359.38;;;16.68;63.67
72585;BME280;60618;40.084;32.908;2023-05-12T10:55:33;89368.78;;;16.94;63.27
72585;BME280;60618;40.084;32.908;2023-05-12T10:58:05;89363.97;;;16.73;64.21
72585;BME280;60618;40.084;32.908;2023-05-12T11:00:42;89354.34;;;16.78;63.87
72585;BME280;60618;40.084;32.908;2023-05-12T11:03:13;89351.66;;;16.78;64.55
72585;BME280;60618;40.084;32.908;2023-05-12T11:05:43;89362.84;;;16.82;64.48
72585;BME280;60618;40.084;32.908;2023-05-12T11:08:11;89348.50;;;16.93;65.54
72585;BME280;60618;40.084;32.908;2023-05-12T11:10:40;89357.59;;;16.90;65.16
72585;BME280;60618;40.084;32.908;2023-05-12T11:13:08;89361.34;;;17.00;64.65
72585;BME280;60618;40.084;32.908;2023-05-12T11:15:36;89339.19;;;16.94;64.08
72585;BME280;60618;40.084;32.908;2023-05-12T11:18:03;89354.34;;;16.78;64.72
72585;BME280;60618;40.084;32.908;2023-05-12T11:20:30;89347.66;;;16.98;63.50
72585;BME280;60618;40.084;32.908;2023-05-12T11:22:57;89343.50;;;16.84;62.88
72585;BME280;60618;40.084;32.908;2023-05-12T11:25:26;89348.28;;;16.91;64.94
72585;BME280;60618;40.084;32.908;2023-05-12T11:27:53;89352.94;;;16.90;64.98
72585;BME280;60618;40.084;32.908;2023-05-12T11:30:20;89342.69;;;16.89;64.39
72585;BME280;60618;40.084;32.908;2023-05-12T11:32:47;89354.47;;;16.86;64.30
72585;BME280;60618;40.084;32.908;2023-05-12T11:35:29;89345.81;;;16.93;62.92
72585;BME280;60618;40.084;32.908;2023-05-12T11:37:56;89334.59;;;16.89;62.49
72585;BME280;60618;40.084;32.908;2023-05-12T11:40:23;89342.63;;;17.21;61.71
72585;BME280;60618;40.084;32.908;2023-05-12T11:42:53;89332.31;;;17.38;61.11
72585;BME280;60618;40.084;32.908;2023-05-12T11:45:21;89341.50;;;17.43;61.12
72585;BME280;60618;40.084;32.908;2023-05-12T11:47:48;89333.34;;;17.48;61.17
72585;BME280;60618;40.084;32.908;2023-05-12T11:50:20;89335.50;;;17.23;61.35
72585;BME280;60618;40.084;32.908;2023-05-12T11:52:47;89331.97;;;17.28;61.57
72585;BME280;60618;40.084;32.908;2023-05-12T11:55:19;89337.56;;;17.17;63.13
72585;BME280;60618;40.084;32.908;2023-05-12T11:57:55;89328.06;;;17.29;62.37
72585;BME280;60618;40.084;32.908;2023-05-12T12:00:27;89326.47;;;17.60;60.94
72585;BME280;60618;40.084;32.908;2023-05-12T12:03:11;89328.63;;;18.02;61.01
72585;BME280;60618;40.084;32.908;2023-05-12T12:05:40;89331.53;;;18.04;60.20
72585;BME280;60618;40.084;32.908;2023-05-12T12:08:13;89335.81;;;17.99;60.14
72585;BME280;60618;40.084;32.908;2023-05-12T12:10:43;89332.31;;;18.25;59.68
72585;BME280;60618;40.084;32.908;2023-05-12T12:13:21;89334.22;;;18.51;57.91
72585;BME280;60618;40.084;32.908;2023-05-12T12:15:49;89328.06;;;18.51;57.36
72585;BME280;60618;40.084;32.908;2023-05-12T12:18:16;89329.19;;;18.34;58.37
72585;BME280;60618;40.084;32.908;2023-05-12T12:20:44;89331.97;;;17.95;59.37
72585;BME280;60618;40.084;32.908;2023-05-12T12:23:11;89331.16;;;17.47;61.19
72585;BME280;60618;40.084;32.908;2023-05-12T12:25:38;89328.53;;;17.15;62.29
72585;BME280;60618;40.084;32.908;2023-05-12T12:28:05;89339.59;;;16.98;62.43
72585;BME280;60618;40.084;32.908;2023-05-12T12:30:32;89347.50;;;17.22;62.23
72585;BME280;60618;40.084;32.908;2023-05-12T12:32:59;89349.34;;;17.14;61.97
72585;BME280;60618;40.084;32.908;2023-05-12T12:35:26;89348.50;;;17.06;62.42
72585;BME280;60618;40.084;32.908;2023-05-12T12:37:53;89346.88;;;17.16;61.50
72585;BME280;60618;40.084;32.908;2023-05-12T12:40:20;89336.75;;;17.36;60.65
72585;BME280;60618;40.084;32.908;2023-05-12T12:42:47;89343.75;;;17.12;60.03
72585;BME280;60618;40.084;32.908;2023-05-12T12:45:14;89339.63;;;17.11;61.48
72585;BME280;60618;40.084;32.908;2023-05-12T12:47:42;89332.72;;;17.29;60.08
72585;BME280;60618;40.084;32.908;2023-05-12T12:50:09;89335.59;;;17.57;60.07
72585;BME280;60618;40.084;32.908;2023-05-12T12:52:37;89332.19;;;17.83;58.89
72585;BME280;60618;40.084;32.908;2023-05-12T12:55:05;89329.44;;;18.10;58.47
72585;BME280;60618;40.084;32.908;2023-05-12T12:57:32;89329.28;;;18.29;57.84
72585;BME280;60618;40.084;32.908;2023-05-12T12:59:59;89329.63;;;18.25;58.29
72585;BME280;60618;40.084;32.908;2023-05-12T13:02:26;89333.31;;;17.88;58.74